sensor_id;sensor_type;location;lat;lon;timestamp;P1;durP1;ratioP1;P2;durP2;ratioP2
7162;SDS011;3623;47.098;15.446;2022-11-20T00:01:30;53.85;;;23.85;;
7162;SDS011;3623;47.098;15.446;2022-11-20T00:03:57;58.17;;;26.50;;
7162;SDS011;3623;47.098;15.446;2022-11-20T00:06:26;44.90;;;24.25;;
7162;SDS011;3623;47.098;15.446;2022-11-20T00:08:54;45.58;;;24.02;;
7162;SDS011;3623;47.098;15.446;2022-11-20T00:11:24;58.83;;;24.67;;
7162;SDS011;3623;47.098;15.446;2022-11-20T00:13:52;69.60;;;26.23;;
7162;SDS011;3623;47.098;15.446;2022-11-20T00:16:22;57.15;;;23.75;;
7162;SDS011;3623;47.098;15.446;2022-11-20T00:18:51;39.30;;;21.65;;
7162;SDS011;3623;47.098;15.446;2022-11-20T00:21:18;54.28;;;24.02;;
7162;SDS011;3623;47.098;15.446;2022-11-20T00:23:48;52.13;;;22.50;;
7162;SDS011;3623;47.098;15.446;2022-11-20T00:26:17;42.40;;;22.83;;
7162;SDS011;3623;47.098;15.446;2022-11-20T00:28:48;105.20;;;30.88;;
7162;SDS011;3623;47.098;15.446;2022-11-20T00:31:17;165.30;;;32.05;;
7162;SDS011;3623;47.098;15.446;2022-11-20T00:33:44;249.00;;;43.67;;
7162;SDS011;3623;47.098;15.446;2022-11-20T00:36:12;45.63;;;21.30;;
7162;SDS011;3623;47.098;15.446;2022-11-20T00:38:41;149.10;;;32.30;;
7162;SDS011;3623;47.098;15.446;2022-11-20T00:41:11;77.57;;;23.42;;
7162;SDS011;3623;47.098;15.446;2022-11-20T00:43:39;73.38;;;26.17;;
7162;SDS011;3623;47.098;15.446;2022-11-20T00:46:07;51.65;;;23.00;;
7162;SDS011;3623;47.098;15.446;2022-11-20T00:48:35;42.85;;;21.73;;
7162;SDS011;3623;47.098;15.446;2022-11-20T00:51:02;49.95;;;21.70;;
7162;SDS011;3623;47.098;15.446;2022-11-20T00:53:30;70.95;;;22.20;;
7162;SDS011;3623;47.098;15.446;2022-11-20T00:55:58;45.35;;;20.95;;
7162;SDS011;3623;47.098;15.446;2022-11-20T00:58:30;66.40;;;21.42;;
7162;SDS011;3623;47.098;15.446;2022-11-20T01:01:02;80.25;;;21.92;;
7162;SDS011;3623;47.098;15.446;2022-11-20T01:03:31;46.97;;;19.50;;
7162;SDS011;3623;47.098;15.446;2022-11-20T01:06:01;65.55;;;20.83;;
7162;SDS011;3623;47.098;15.446;2022-11-20T01:08:30;76.35;;;24.80;;
7162;SDS011;3623;47.098;15.446;2022-11-20T01:11:01;54.88;;;22.17;;
7162;SDS011;3623;47.098;15.446;2022-11-20T01:13:30;141.90;;;31.17;;
7162;SDS011;3623;47.098;15.446;2022-11-20T01:16:04;48.25;;;20.65;;
7162;SDS011;3623;47.098;15.446;2022-11-20T01:18:33;42.78;;;20.25;;
7162;SDS011;3623;47.098;15.446;2022-11-20T01:21:01;130.55;;;32.17;;
7162;SDS011;3623;47.098;15.446;2022-11-20T01:23:32;51.17;;;20.38;;
7162;SDS011;3623;47.098;15.446;2022-11-20T01:26:00;68.93;;;22.95;;
7162;SDS011;3623;47.098;15.446;2022-11-20T01:28:29;37.20;;;20.15;;
7162;SDS011;3623;47.098;15.446;2022-11-20T01:30:57;75.03;;;21.42;;
7162;SDS011;3623;47.098;15.446;2022-11-20T01:33:25;56.83;;;18.65;;
7162;SDS011;3623;47.098;15.446;2022-11-20T01:35:52;60.72;;;20.08;;
7162;SDS011;3623;47.098;15.446;2022-11-20T01:38:19;148.70;;;28.92;;
7162;SDS011;3623;47.098;15.446;2022-11-20T01:40:53;90.47;;;21.33;;
7162;SDS011;3623;47.098;15.446;2022-11-20T01:43:22;175.55;;;31.30;;
7162;SDS011;3623;47.098;15.446;2022-11-20T01:45:58;110.13;;;23.55;;
7162;SDS011;3623;47.098;15.446;2022-11-20T01:48:29;63.10;;;20.40;;
7162;SDS011;3623;47.098;15.446;2022-11-20T01:50:59;45.63;;;18.65;;
7162;SDS011;3623;47.098;15.446;2022-11-20T01:53:29;49.80;;;20.00;;
7162;SDS011;3623;47.098;15.446;2022-11-20T01:56:00;69.95;;;23.45;;
7162;SDS011;3623;47.098;15.446;2022-11-20T01:58:30;190.00;;;33.00;;
7162;SDS011;3623;47.098;15.446;2022-11-20T02:01:03;109.00;;;22.25;;
7162;SDS011;3623;47.098;15.446;2022-11-20T02:03:31;71.00;;;21.92;;
7162;SDS011;3623;47.098;15.446;2022-11-20T02:06:01;29.13;;;16.92;;
7162;SDS011;3623;47.098;15.446;2022-11-20T02:08:34;26.08;;;17.52;;
7162;SDS011;3623;47.098;15.446;2022-11-20T02:11:02;25.70;;;18.20;;
7162;SDS011;3623;47.098;15.446;2022-11-20T02:13:29;26.83;;;17.23;;
7162;SDS011;3623;47.098;15.446;2022-11-20T02:16:16;24.45;;;16.92;;
7162;SDS011;3623;47.098;15.446;2022-11-20T02:18:47;27.88;;;15.18;;
7162;SDS011;3623;47.098;15.446;2022-11-20T02:21:17;28.33;;;16.98;;
7162;SDS011;3623;47.098;15.446;2022-11-20T02:24:01;30.58;;;16.73;;
7162;SDS011;3623;47.098;15.446;2022-11-20T02:26:31;24.80;;;14.02;;
7162;SDS011;3623;47.098;15.446;2022-11-20T02:29:00;47.47;;;18.15;;
7162;SDS011;3623;47.098;15.446;2022-11-20T02:31:33;32.58;;;19.23;;
7162;SDS011;3623;47.098;15.446;2022-11-20T02:34:02;36.78;;;16.98;;
7162;SDS011;3623;47.098;15.446;2022-11-20T02:36:29;30.95;;;17.13;;
7162;SDS011;3623;47.098;15.446;2022-11-20T02:38:58;65.93;;;20.75;;
7162;SDS011;3623;47.098;15.446;2022-11-20T02:41:31;32.40;;;17.67;;
7162;SDS011;3623;47.098;15.446;2022-11-20T02:44:00;44.10;;;17.58;;
7162;SDS011;3623;47.098;15.446;2022-11-20T02:46:27;82.53;;;24.00;;
7162;SDS011;3623;47.098;15.446;2022-11-20T02:48:54;70.50;;;19.80;;
7162;SDS011;3623;47.098;15.446;2022-11-20T02:51:22;29.13;;;15.55;;
7162;SDS011;3623;47.098;15.446;2022-11-20T02:53:49;24.70;;;15.75;;
7162;SDS011;3623;47.098;15.446;2022-11-20T02:56:16;152.95;;;28.45;;
7162;SDS011;3623;47.098;15.446;2022-11-20T02:58:45;54.95;;;18.80;;
7162;SDS011;3623;47.098;15.446;2022-11-20T03:01:12;59.80;;;19.60;;
7162;SDS011;3623;47.098;15.446;2022-11-20T03:03:39;33.08;;;15.60;;
7162;SDS011;3623;47.098;15.446;2022-11-20T03:06:06;30.90;;;16.73;;
7162;SDS011;3623;47.098;15.446;2022-11-20T03:08:34;30.58;;;16.23;;
7162;SDS011;3623;47.098;15.446;2022-11-20T03:11:04;73.10;;;20.38;;
7162;SDS011;3623;47.098;15.446;2022-11-20T03:13:32;49.08;;;19.05;;
7162;SDS011;3623;47.098;15.446;2022-11-20T03:16:06;61.08;;;18.02;;
7162;SDS011;3623;47.098;15.446;2022-11-20T03:18:37;37.70;;;17.85;;
7162;SDS011;3623;47.098;15.446;2022-11-20T03:21:05;31.67;;;16.58;;
7162;SDS011;3623;47.098;15.446;2022-11-20T03:23:33;121.25;;;29.20;;
7162;SDS011;3623;47.098;15.446;2022-11-20T03:26:07;44.20;;;19.25;;
7162;SDS011;3623;47.098;15.446;2022-11-20T03:28:35;73.40;;;21.65;;
7162;SDS011;3623;47.098;15.446;2022-11-20T03:31:11;25.02;;;15.20;;
7162;SDS011;3623;47.098;15.446;2022-11-20T03:33:39;31.83;;;17.27;;
7162;SDS011;3623;47.098;15.446;2022-11-20T03:36:08;23.00;;;15.45;;
7162;SDS011;3623;47.098;15.446;2022-11-20T03:38:37;24.55;;;16.02;;
7162;SDS011;3623;47.098;15.446;2022-11-20T03:41:05;33.08;;;16.23;;
7162;SDS011;3623;47.098;15.446;2022-11-20T03:43:34;24.98;;;13.55;;
7162;SDS011;3623;47.098;15.446;2022-11-20T03:46:01;31.00;;;15.57;;
7162;SDS011;3623;47.098;15.446;2022-11-20T03:48:30;24.17;;;15.23;;
7162;SDS011;3623;47.098;15.446;2022-11-20T03:51:06;26.10;;;14.48;;
7162;SDS011;3623;47.098;15.446;2022-11-20T03:53:34;21.10;;;13.80;;
7162;SDS011;3623;47.098;15.446;2022-11-20T03:56:01;22.30;;;14.43;;
7162;SDS011;3623;47.098;15.446;2022-11-20T03:58:29;27.50;;;15.13;;
7162;SDS011;3623;47.098;15.446;2022-11-20T04:00:56;26.17;;;13.50;;
7162;SDS011;3623;47.098;15.446;2022-11-20T04:03:23;19.58;;;13.23;;
7162;SDS011;3623;47.098;15.446;2022-11-20T04:05:53;22.98;;;15.45;;
7162;SDS011;3623;47.098;15.446;2022-11-20T04:08:20;17.95;;;13.27;;
7162;SDS011;3623;47.098;15.446;2022-11-20T04:10:47;36.40;;;17.42;;
7162;SDS011;3623;47.098;15.446;2022-11-20T04:13:14;20.75;;;12.73;;
7162;SDS011;3623;47.098;15.446;2022-11-20T04:15:41;18.08;;;11.88;;
7162;SDS011;3623;47.098;15.446;2022-11-20T04:18:08;29.33;;;15.95;;
7162;SDS011;3623;47.098;15.446;2022-11-20T04:20:35;87.85;;;21.17;;
7162;SDS011;3623;47.098;15.446;2022-11-20T04:23:03;139.63;;;25.45;;
7162;SDS011;3623;47.098;15.446;2022-11-20T04:25:30;25.67;;;14.45;;
7162;SDS011;3623;47.098;15.446;2022-11-20T04:27:57;23.25;;;14.65;;
7162;SDS011;3623;47.098;15.446;2022-11-20T04:30:24;18.52;;;13.25;;
7162;SDS011;3623;47.098;15.446;2022-11-20T04:32:51;20.30;;;14.48;;
7162;SDS011;3623;47.098;15.446;2022-11-20T04:35:18;16.33;;;12.23;;
7162;SDS011;3623;47.098;15.446;2022-11-20T04:37:45;22.00;;;14.35;;
7162;SDS011;3623;47.098;15.446;2022-11-20T04:40:14;21.30;;;13.88;;
7162;SDS011;3623;47.098;15.446;2022-11-20T04:42:41;23.33;;;14.63;;
7162;SDS011;3623;47.098;15.446;2022-11-20T04:45:08;19.17;;;13.45;;
7162;SDS011;3623;47.098;15.446;2022-11-20T04:47:36;22.98;;;13.88;;
7162;SDS011;3623;47.098;15.446;2022-11-20T04:50:03;21.42;;;13.35;;
7162;SDS011;3623;47.098;15.446;2022-11-20T04:52:30;16.52;;;11.18;;
7162;SDS011;3623;47.098;15.446;2022-11-20T04:54:57;16.35;;;12.70;;
7162;SDS011;3623;47.098;15.446;2022-11-20T04:57:26;19.25;;;13.48;;
7162;SDS011;3623;47.098;15.446;2022-11-20T04:59:53;16.63;;;12.85;;
7162;SDS011;3623;47.098;15.446;2022-11-20T05:02:20;20.75;;;12.77;;
7162;SDS011;3623;47.098;15.446;2022-11-20T05:04:48;17.42;;;12.85;;
7162;SDS011;3623;47.098;15.446;2022-11-20T05:07:15;19.95;;;12.07;;
7162;SDS011;3623;47.098;15.446;2022-11-20T05:09:42;18.58;;;11.88;;
7162;SDS011;3623;47.098;15.446;2022-11-20T05:12:09;16.08;;;12.00;;
7162;SDS011;3623;47.098;15.446;2022-11-20T05:14:37;17.70;;;12.25;;
7162;SDS011;3623;47.098;15.446;2022-11-20T05:17:04;21.35;;;12.98;;
7162;SDS011;3623;47.098;15.446;2022-11-20T05:19:31;20.90;;;11.98;;
7162;SDS011;3623;47.098;15.446;2022-11-20T05:21:58;21.60;;;14.10;;
7162;SDS011;3623;47.098;15.446;2022-11-20T05:24:25;20.00;;;12.48;;
7162;SDS011;3623;47.098;15.446;2022-11-20T05:26:52;19.10;;;12.80;;
7162;SDS011;3623;47.098;15.446;2022-11-20T05:29:19;17.75;;;13.07;;
7162;SDS011;3623;47.098;15.446;2022-11-20T05:31:48;16.88;;;12.80;;
7162;SDS011;3623;47.098;15.446;2022-11-20T05:34:15;18.67;;;13.50;;
7162;SDS011;3623;47.098;15.446;2022-11-20T05:36:42;21.25;;;12.93;;
7162;SDS011;3623;47.098;15.446;2022-11-20T05:39:09;16.73;;;12.10;;
7162;SDS011;3623;47.098;15.446;2022-11-20T05:41:36;17.77;;;13.02;;
7162;SDS011;3623;47.098;15.446;2022-11-20T05:44:03;20.58;;;12.15;;
7162;SDS011;3623;47.098;15.446;2022-11-20T05:46:31;13.88;;;10.55;;
7162;SDS011;3623;47.098;15.446;2022-11-20T05:48:59;18.75;;;12.10;;
7162;SDS011;3623;47.098;15.446;2022-11-20T05:51:26;16.80;;;12.02;;
7162;SDS011;3623;47.098;15.446;2022-11-20T05:53:55;15.48;;;10.30;;
7162;SDS011;3623;47.098;15.446;2022-11-20T05:56:23;15.90;;;11.52;;
7162;SDS011;3623;47.098;15.446;2022-11-20T05:58:51;14.32;;;11.43;;
7162;SDS011;3623;47.098;15.446;2022-11-20T06:01:18;18.88;;;12.52;;
7162;SDS011;3623;47.098;15.446;2022-11-20T06:03:47;19.00;;;13.05;;
7162;SDS011;3623;47.098;15.446;2022-11-20T06:06:17;17.67;;;11.65;;
7162;SDS011;3623;47.098;15.446;2022-11-20T06:08:45;21.67;;;14.43;;
7162;SDS011;3623;47.098;15.446;2022-11-20T06:11:13;98.93;;;25.13;;
7162;SDS011;3623;47.098;15.446;2022-11-20T06:13:41;56.40;;;22.42;;
7162;SDS011;3623;47.098;15.446;2022-11-20T06:16:10;29.02;;;19.38;;
7162;SDS011;3623;47.098;15.446;2022-11-20T06:18:38;25.55;;;16.02;;
7162;SDS011;3623;47.098;15.446;2022-11-20T06:21:07;22.00;;;15.35;;
7162;SDS011;3623;47.098;15.446;2022-11-20T06:23:36;26.73;;;17.60;;
7162;SDS011;3623;47.098;15.446;2022-11-20T06:26:05;20.60;;;15.52;;
7162;SDS011;3623;47.098;15.446;2022-11-20T06:28:33;21.63;;;14.93;;
7162;SDS011;3623;47.098;15.446;2022-11-20T06:31:01;20.67;;;14.82;;
7162;SDS011;3623;47.098;15.446;2022-11-20T06:33:28;16.52;;;14.05;;
7162;SDS011;3623;47.098;15.446;2022-11-20T06:35:56;21.98;;;16.02;;
7162;SDS011;3623;47.098;15.446;2022-11-20T06:38:24;17.88;;;13.43;;
7162;SDS011;3623;47.098;15.446;2022-11-20T06:40:52;23.13;;;13.95;;
7162;SDS011;3623;47.098;15.446;2022-11-20T06:43:19;28.95;;;16.27;;
7162;SDS011;3623;47.098;15.446;2022-11-20T06:45:51;22.20;;;15.38;;
7162;SDS011;3623;47.098;15.446;2022-11-20T06:48:18;23.35;;;16.15;;
7162;SDS011;3623;47.098;15.446;2022-11-20T06:50:46;26.20;;;14.60;;
7162;SDS011;3623;47.098;15.446;2022-11-20T06:53:13;25.38;;;16.73;;
7162;SDS011;3623;47.098;15.446;2022-11-20T06:55:41;31.35;;;15.18;;
7162;SDS011;3623;47.098;15.446;2022-11-20T06:58:11;23.98;;;16.00;;
7162;SDS011;3623;47.098;15.446;2022-11-20T07:00:38;109.38;;;22.83;;
7162;SDS011;3623;47.098;15.446;2022-11-20T07:03:06;42.25;;;15.73;;
7162;SDS011;3623;47.098;15.446;2022-11-20T07:05:35;73.78;;;18.95;;
7162;SDS011;3623;47.098;15.446;2022-11-20T07:08:03;201.77;;;30.27;;
7162;SDS011;3623;47.098;15.446;2022-11-20T07:10:31;65.22;;;19.65;;
7162;SDS011;3623;47.098;15.446;2022-11-20T07:12:58;153.32;;;24.30;;
7162;SDS011;3623;47.098;15.446;2022-11-20T07:15:27;301.35;;;37.75;;
7162;SDS011;3623;47.098;15.446;2022-11-20T07:17:54;109.70;;;23.25;;
7162;SDS011;3623;47.098;15.446;2022-11-20T07:20:24;117.85;;;24.65;;
7162;SDS011;3623;47.098;15.446;2022-11-20T07:22:52;24.40;;;16.20;;
7162;SDS011;3623;47.098;15.446;2022-11-20T07:25:20;79.10;;;23.15;;
7162;SDS011;3623;47.098;15.446;2022-11-20T07:27:48;109.40;;;25.23;;
7162;SDS011;3623;47.098;15.446;2022-11-20T07:30:15;91.00;;;19.85;;
7162;SDS011;3623;47.098;15.446;2022-11-20T07:32:43;27.20;;;14.85;;
7162;SDS011;3623;47.098;15.446;2022-11-20T07:35:13;67.60;;;21.52;;
7162;SDS011;3623;47.098;15.446;2022-11-20T07:37:41;50.38;;;18.38;;
7162;SDS011;3623;47.098;15.446;2022-11-20T07:40:08;58.40;;;19.17;;
7162;SDS011;3623;47.098;15.446;2022-11-20T07:42:36;38.70;;;17.17;;
7162;SDS011;3623;47.098;15.446;2022-11-20T07:45:03;36.08;;;16.05;;
7162;SDS011;3623;47.098;15.446;2022-11-20T07:47:34;47.92;;;18.63;;
7162;SDS011;3623;47.098;15.446;2022-11-20T07:50:03;69.13;;;17.60;;
7162;SDS011;3623;47.098;15.446;2022-11-20T07:52:31;30.10;;;16.60;;
7162;SDS011;3623;47.098;15.446;2022-11-20T07:54:58;40.10;;;16.70;;
7162;SDS011;3623;47.098;15.446;2022-11-20T07:57:25;22.23;;;14.48;;
7162;SDS011;3623;47.098;15.446;2022-11-20T07:59:52;20.48;;;15.38;;
7162;SDS011;3623;47.098;15.446;2022-11-20T08:02:19;26.90;;;16.08;;
7162;SDS011;3623;47.098;15.446;2022-11-20T08:04:46;23.70;;;16.58;;
7162;SDS011;3623;47.098;15.446;2022-11-20T08:07:15;26.98;;;16.45;;
7162;SDS011;3623;47.098;15.446;2022-11-20T08:09:42;24.92;;;16.70;;
7162;SDS011;3623;47.098;15.446;2022-11-20T08:12:10;22.60;;;15.10;;
7162;SDS011;3623;47.098;15.446;2022-11-20T08:15:01;22.95;;;15.95;;
7162;SDS011;3623;47.098;15.446;2022-11-20T08:17:29;19.17;;;13.55;;
7162;SDS011;3623;47.098;15.446;2022-11-20T08:19:56;17.08;;;14.05;;
7162;SDS011;3623;47.098;15.446;2022-11-20T08:22:25;21.85;;;14.68;;
7162;SDS011;3623;47.098;15.446;2022-11-20T08:24:52;16.17;;;13.40;;
7162;SDS011;3623;47.098;15.446;2022-11-20T08:27:19;20.67;;;13.85;;
7162;SDS011;3623;47.098;15.446;2022-11-20T08:29:46;16.67;;;13.43;;
7162;SDS011;3623;47.098;15.446;2022-11-20T08:32:13;21.05;;;15.52;;
7162;SDS011;3623;47.098;15.446;2022-11-20T08:34:40;20.65;;;14.43;;
7162;SDS011;3623;47.098;15.446;2022-11-20T08:37:07;19.38;;;14.60;;
7162;SDS011;3623;47.098;15.446;2022-11-20T08:39:35;19.20;;;13.82;;
7162;SDS011;3623;47.098;15.446;2022-11-20T08:42:06;20.77;;;14.55;;
7162;SDS011;3623;47.098;15.446;2022-11-20T08:44:33;19.10;;;14.80;;
7162;SDS011;3623;47.098;15.446;2022-11-20T08:47:00;24.10;;;15.57;;
7162;SDS011;3623;47.098;15.446;2022-11-20T08:49:27;19.58;;;13.68;;
7162;SDS011;3623;47.098;15.446;2022-11-20T08:51:54;20.50;;;15.93;;
7162;SDS011;3623;47.098;15.446;2022-11-20T08:54:21;23.35;;;16.02;;
7162;SDS011;3623;47.098;15.446;2022-11-20T08:56:50;18.10;;;14.40;;
7162;SDS011;3623;47.098;15.446;2022-11-20T08:59:17;18.70;;;13.18;;
7162;SDS011;3623;47.098;15.446;2022-11-20T09:01:44;21.00;;;15.73;;
7162;SDS011;3623;47.098;15.446;2022-11-20T09:04:11;21.08;;;14.55;;
7162;SDS011;3623;47.098;15.446;2022-11-20T09:06:39;27.20;;;17.73;;
7162;SDS011;3623;47.098;15.446;2022-11-20T09:09:06;21.25;;;15.48;;
7162;SDS011;3623;47.098;15.446;2022-11-20T09:11:34;17.85;;;14.25;;
7162;SDS011;3623;47.098;15.446;2022-11-20T09:14:02;21.65;;;15.43;;
7162;SDS011;3623;47.098;15.446;2022-11-20T09:16:30;18.35;;;13.90;;
7162;SDS011;3623;47.098;15.446;2022-11-20T09:18:57;22.15;;;15.40;;
7162;SDS011;3623;47.098;15.446;2022-11-20T09:21:24;18.20;;;14.65;;
7162;SDS011;3623;47.098;15.446;2022-11-20T09:23:51;21.13;;;13.80;;
7162;SDS011;3623;47.098;15.446;2022-11-20T09:26:18;19.27;;;15.10;;
7162;SDS011;3623;47.098;15.446;2022-11-20T09:28:45;19.90;;;15.43;;
7162;SDS011;3623;47.098;15.446;2022-11-20T09:31:17;17.50;;;13.95;;
7162;SDS011;3623;47.098;15.446;2022-11-20T09:33:48;16.40;;;13.65;;
7162;SDS011;3623;47.098;15.446;2022-11-20T09:36:15;17.92;;;15.25;;
7162;SDS011;3623;47.098;15.446;2022-11-20T09:38:43;22.48;;;15.30;;
7162;SDS011;3623;47.098;15.446;2022-11-20T09:41:17;22.42;;;16.30;;
7162;SDS011;3623;47.098;15.446;2022-11-20T09:43:59;21.00;;;14.63;;
7162;SDS011;3623;47.098;15.446;2022-11-20T09:46:36;18.45;;;13.50;;
7162;SDS011;3623;47.098;15.446;2022-11-20T09:49:14;19.17;;;12.55;;
7162;SDS011;3623;47.098;15.446;2022-11-20T09:51:52;16.92;;;13.98;;
7162;SDS011;3623;47.098;15.446;2022-11-20T09:54:26;14.82;;;11.38;;
7162;SDS011;3623;47.098;15.446;2022-11-20T09:56:58;15.25;;;13.65;;
7162;SDS011;3623;47.098;15.446;2022-11-20T09:59:30;14.70;;;12.88;;
7162;SDS011;3623;47.098;15.446;2022-11-20T10:02:08;15.32;;;11.90;;
7162;SDS011;3623;47.098;15.446;2022-11-20T10:04:43;14.20;;;11.57;;
7162;SDS011;3623;47.098;15.446;2022-11-20T10:07:17;10.30;;;9.30;;
7162;SDS011;3623;47.098;15.446;2022-11-20T10:09:50;11.95;;;9.95;;
7162;SDS011;3623;47.098;15.446;2022-11-20T10:12:21;11.82;;;10.30;;
7162;SDS011;3623;47.098;15.446;2022-11-20T10:15:01;12.32;;;11.02;;
7162;SDS011;3623;47.098;15.446;2022-11-20T10:20:27;12.65;;;9.73;;
7162;SDS011;3623;47.098;15.446;2022-11-20T10:23:06;19.85;;;11.70;;
7162;SDS011;3623;47.098;15.446;2022-11-20T10:25:59;18.10;;;11.57;;
7162;SDS011;3623;47.098;15.446;2022-11-20T10:28:40;109.60;;;23.52;;
7162;SDS011;3623;47.098;15.446;2022-11-20T10:31:24;11.60;;;10.40;;
7162;SDS011;3623;47.098;15.446;2022-11-20T10:33:59;12.18;;;10.85;;
7162;SDS011;3623;47.098;15.446;2022-11-20T10:36:30;10.60;;;9.50;;
7162;SDS011;3623;47.098;15.446;2022-11-20T10:39:03;27.08;;;13.05;;
7162;SDS011;3623;47.098;15.446;2022-11-20T10:41:38;9.77;;;8.75;;
7162;SDS011;3623;47.098;15.446;2022-11-20T10:44:09;9.88;;;8.80;;
7162;SDS011;3623;47.098;15.446;2022-11-20T10:47:02;9.30;;;8.40;;
7162;SDS011;3623;47.098;15.446;2022-11-20T10:49:31;8.40;;;7.60;;
7162;SDS011;3623;47.098;15.446;2022-11-20T10:52:03;8.10;;;7.25;;
7162;SDS011;3623;47.098;15.446;2022-11-20T10:54:36;8.25;;;7.32;;
7162;SDS011;3623;47.098;15.446;2022-11-20T10:57:12;10.10;;;8.38;;
7162;SDS011;3623;47.098;15.446;2022-11-20T10:59:59;8.38;;;7.57;;
7162;SDS011;3623;47.098;15.446;2022-11-20T11:02:31;9.25;;;8.35;;
7162;SDS011;3623;47.098;15.446;2022-11-20T11:05:04;9.57;;;7.60;;
7162;SDS011;3623;47.098;15.446;2022-11-20T11:07:57;8.57;;;7.68;;
7162;SDS011;3623;47.098;15.446;2022-11-20T11:10:26;8.90;;;7.97;;
7162;SDS011;3623;47.098;15.446;2022-11-20T11:12:59;11.95;;;10.70;;
7162;SDS011;3623;47.098;15.446;2022-11-20T11:15:27;11.10;;;9.90;;
7162;SDS011;3623;47.098;15.446;2022-11-20T11:17:56;10.80;;;9.80;;
7162;SDS011;3623;47.098;15.446;2022-11-20T11:20:25;11.30;;;9.57;;
7162;SDS011;3623;47.098;15.446;2022-11-20T11:22:53;12.60;;;10.35;;
7162;SDS011;3623;47.098;15.446;2022-11-20T11:25:22;13.13;;;11.82;;
7162;SDS011;3623;47.098;15.446;2022-11-20T11:27:52;11.90;;;10.73;;
7162;SDS011;3623;47.098;15.446;2022-11-20T11:30:22;10.75;;;9.65;;
7162;SDS011;3623;47.098;15.446;2022-11-20T11:32:49;11.82;;;9.02;;
7162;SDS011;3623;47.098;15.446;2022-11-20T11:35:21;12.68;;;10.10;;
7162;SDS011;3623;47.098;15.446;2022-11-20T11:37:51;12.00;;;9.10;;
7162;SDS011;3623;47.098;15.446;2022-11-20T11:40:20;11.00;;;9.90;;
7162;SDS011;3623;47.098;15.446;2022-11-20T11:42:56;10.75;;;9.73;;
7162;SDS011;3623;47.098;15.446;2022-11-20T11:45:25;14.68;;;10.77;;
7162;SDS011;3623;47.098;15.446;2022-11-20T11:47:51;10.75;;;9.65;;
7162;SDS011;3623;47.098;15.446;2022-11-20T11:50:21;13.48;;;12.07;;
7162;SDS011;3623;47.098;15.446;2022-11-20T11:52:54;11.90;;;10.60;;
7162;SDS011;3623;47.098;15.446;2022-11-20T11:55:28;14.23;;;10.07;;
7162;SDS011;3623;47.098;15.446;2022-11-20T11:58:02;11.63;;;10.43;;
7162;SDS011;3623;47.098;15.446;2022-11-20T12:00:49;10.80;;;9.43;;
7162;SDS011;3623;47.098;15.446;2022-11-20T12:03:22;8.47;;;7.57;;
7162;SDS011;3623;47.098;15.446;2022-11-20T12:05:55;8.00;;;7.30;;
7162;SDS011;3623;47.098;15.446;2022-11-20T12:08:27;8.97;;;8.03;;
7162;SDS011;3623;47.098;15.446;2022-11-20T12:10:59;6.60;;;5.97;;
7162;SDS011;3623;47.098;15.446;2022-11-20T12:13:32;6.47;;;5.87;;
7162;SDS011;3623;47.098;15.446;2022-11-20T12:16:07;4.70;;;4.30;;
7162;SDS011;3623;47.098;15.446;2022-11-20T12:18:39;4.07;;;3.60;;
7162;SDS011;3623;47.098;15.446;2022-11-20T12:21:11;5.77;;;4.83;;
7162;SDS011;3623;47.098;15.446;2022-11-20T12:26:41;7.40;;;6.80;;
7162;SDS011;3623;47.098;15.446;2022-11-20T12:29:17;6.93;;;6.33;;
7162;SDS011;3623;47.098;15.446;2022-11-20T12:32:01;7.57;;;6.97;;
7162;SDS011;3623;47.098;15.446;2022-11-20T12:34:44;6.20;;;5.70;;
7162;SDS011;3623;47.098;15.446;2022-11-20T12:37:23;6.27;;;5.67;;
7162;SDS011;3623;47.098;15.446;2022-11-20T12:40:00;4.60;;;4.23;;
7162;SDS011;3623;47.098;15.446;2022-11-20T12:42:39;4.23;;;3.93;;
7162;SDS011;3623;47.098;15.446;2022-11-20T12:45:46;4.03;;;3.73;;
7162;SDS011;3623;47.098;15.446;2022-11-20T12:48:55;5.80;;;5.30;;
7162;SDS011;3623;47.098;15.446;2022-11-20T12:51:47;4.37;;;4.07;;
7162;SDS011;3623;47.098;15.446;2022-11-20T12:54:34;4.73;;;4.33;;
7162;SDS011;3623;47.098;15.446;2022-11-20T12:57:21;6.10;;;5.60;;
7162;SDS011;3623;47.098;15.446;2022-11-20T12:59:59;5.73;;;5.10;;
7162;SDS011;3623;47.098;15.446;2022-11-20T13:02:37;6.63;;;5.83;;
7162;SDS011;3623;47.098;15.446;2022-11-20T13:05:21;5.43;;;4.90;;
7162;SDS011;3623;47.098;15.446;2022-11-20T13:07:57;5.90;;;5.30;;
7162;SDS011;3623;47.098;15.446;2022-11-20T13:10:28;5.63;;;5.10;;
7162;SDS011;3623;47.098;15.446;2022-11-20T13:13:03;5.57;;;5.07;;
7162;SDS011;3623;47.098;15.446;2022-11-20T13:15:46;5.93;;;5.30;;
7162;SDS011;3623;47.098;15.446;2022-11-20T13:18:20;4.10;;;3.70;;
7162;SDS011;3623;47.098;15.446;2022-11-20T13:20:47;4.43;;;3.78;;
7162;SDS011;3623;47.098;15.446;2022-11-20T13:23:22;4.88;;;4.30;;
7162;SDS011;3623;47.098;15.446;2022-11-20T13:25:51;3.90;;;3.60;;
7162;SDS011;3623;47.098;15.446;2022-11-20T13:28:31;4.55;;;4.15;;
7162;SDS011;3623;47.098;15.446;2022-11-20T13:30:59;3.60;;;3.30;;
7162;SDS011;3623;47.098;15.446;2022-11-20T13:33:28;2.78;;;2.58;;
7162;SDS011;3623;47.098;15.446;2022-11-20T13:35:57;2.50;;;2.30;;
7162;SDS011;3623;47.098;15.446;2022-11-20T13:38:26;5.28;;;3.25;;
7162;SDS011;3623;47.098;15.446;2022-11-20T13:40:54;4.20;;;3.83;;
7162;SDS011;3623;47.098;15.446;2022-11-20T13:43:26;3.95;;;3.55;;
7162;SDS011;3623;47.098;15.446;2022-11-20T13:45:58;3.38;;;2.92;;
7162;SDS011;3623;47.098;15.446;2022-11-20T13:48:26;3.50;;;3.25;;
7162;SDS011;3623;47.098;15.446;2022-11-20T13:51:03;3.70;;;2.95;;
7162;SDS011;3623;47.098;15.446;2022-11-20T13:53:46;4.00;;;3.70;;
7162;SDS011;3623;47.098;15.446;2022-11-20T13:56:24;3.92;;;3.63;;
7162;SDS011;3623;47.098;15.446;2022-11-20T13:59:02;3.85;;;3.55;;
7162;SDS011;3623;47.098;15.446;2022-11-20T14:01:36;4.32;;;3.92;;
7162;SDS011;3623;47.098;15.446;2022-11-20T14:04:06;4.40;;;3.97;;
7162;SDS011;3623;47.098;15.446;2022-11-20T14:06:41;4.13;;;3.67;;
7162;SDS011;3623;47.098;15.446;2022-11-20T14:09:10;4.13;;;3.72;;
7162;SDS011;3623;47.098;15.446;2022-11-20T14:11:45;3.00;;;2.80;;
7162;SDS011;3623;47.098;15.446;2022-11-20T14:14:15;2.35;;;2.25;;
7162;SDS011;3623;47.098;15.446;2022-11-20T14:16:45;2.70;;;2.10;;
7162;SDS011;3623;47.098;15.446;2022-11-20T14:19:23;3.30;;;3.10;;
7162;SDS011;3623;47.098;15.446;2022-11-20T14:22:09;3.15;;;2.85;;
7162;SDS011;3623;47.098;15.446;2022-11-20T14:24:41;3.92;;;3.63;;
7162;SDS011;3623;47.098;15.446;2022-11-20T14:27:13;3.33;;;3.03;;
7162;SDS011;3623;47.098;15.446;2022-11-20T14:29:41;3.70;;;3.40;;
7162;SDS011;3623;47.098;15.446;2022-11-20T14:32:11;4.15;;;3.08;;
7162;SDS011;3623;47.098;15.446;2022-11-20T14:34:41;3.42;;;3.03;;
7162;SDS011;3623;47.098;15.446;2022-11-20T14:37:12;4.22;;;3.88;;
7162;SDS011;3623;47.098;15.446;2022-11-20T14:39:47;3.30;;;3.10;;
7162;SDS011;3623;47.098;15.446;2022-11-20T14:42:17;3.88;;;3.45;;
7162;SDS011;3623;47.098;15.446;2022-11-20T14:44:46;3.90;;;3.60;;
7162;SDS011;3623;47.098;15.446;2022-11-20T14:47:17;4.03;;;3.72;;
7162;SDS011;3623;47.098;15.446;2022-11-20T14:49:46;3.50;;;3.30;;
7162;SDS011;3623;47.098;15.446;2022-11-20T14:52:14;6.07;;;5.10;;
7162;SDS011;3623;47.098;15.446;2022-11-20T14:54:44;4.97;;;4.47;;
7162;SDS011;3623;47.098;15.446;2022-11-20T14:57:22;5.22;;;4.82;;
7162;SDS011;3623;47.098;15.446;2022-11-20T14:59:50;5.45;;;4.95;;
7162;SDS011;3623;47.098;15.446;2022-11-20T15:02:19;6.00;;;5.50;;
7162;SDS011;3623;47.098;15.446;2022-11-20T15:04:47;5.78;;;5.22;;
7162;SDS011;3623;47.098;15.446;2022-11-20T15:07:24;6.15;;;5.20;;